Time;durP1;ratioP1;P1;durP2;ratioP2;P2;SDS_P1;SDS_P2;PMS_P1;PMS_P2;Temp;Humidity;BMP_temperature;BMP_pressure;BME280_temperature;BME280_humidity;BME280_pressure;Samples;Min_cycle;Max_cycle;Signal;HPM_P1;HPM_P2
2022/09/17 00:01:38;;;;;;;12.90;6.60;;;;;;;12.61;65.88;97923.14;106017;1274;111081;-63
2022/09/17 00:04:06;;;;;;;15.30;6.60;;;;;;;12.59;65.91;97927.98;106034;1274;97906;-62
2022/09/17 00:06:34;;;;;;;16.20;6.80;;;;;;;12.57;65.98;97931.73;106013;1274;109216;-65
2022/09/17 00:09:06;;;;;;;13.70;6.10;;;;;;;12.55;66.00;97934.14;105922;1274;97963;-64
2022/09/17 00:11:37;;;;;;;13.10;6.00;;;;;;;12.51;65.94;97933.08;106033;1274;97831;-64
2022/09/17 00:14:08;;;;;;;14.60;6.90;;;;;;;12.50;66.06;97931.33;106013;1274;112047;-63
2022/09/17 00:16:42;;;;;;;19.70;7.30;;;;;;;12.49;66.00;97933.95;106009;1274;96212;-64
2022/09/17 00:19:21;;;;;;;17.00;7.70;;;;;;;12.48;66.05;97928.91;106181;1274;107764;-63
2022/09/17 00:21:50;;;;;;;16.30;6.50;;;;;;;12.48;66.13;97930.47;105948;1274;96352;-63
2022/09/17 00:24:19;;;;;;;15.70;6.60;;;;;;;12.47;65.99;97935.53;106143;1274;97813;-64
2022/09/17 00:26:49;;;;;;;18.60;6.80;;;;;;;12.46;66.10;97935.12;106102;1274;111065;-63
2022/09/17 00:29:17;;;;;;;14.70;7.00;;;;;;;12.43;66.10;97935.73;106109;1274;97864;-64
2022/09/17 00:31:45;;;;;;;16.00;7.10;;;;;;;12.42;66.20;97938.56;106087;1274;109090;-64
2022/09/17 00:34:14;;;;;;;17.00;6.80;;;;;;;12.42;66.22;97943.36;106094;1274;97902;-64
2022/09/17 00:36:42;;;;;;;14.70;6.70;;;;;;;12.41;66.18;97945.94;106133;1274;97892;-61
2022/09/17 00:39:11;;;;;;;14.10;6.80;;;;;;;12.39;66.16;97941.48;106095;1274;111994;-63
2022/09/17 00:41:39;;;;;;;19.40;7.40;;;;;;;12.39;66.24;97939.93;106139;1274;96726;-64
2022/09/17 00:44:42;;;;;;;14.90;6.40;;;;;;;12.38;66.14;97937.02;106092;1274;107706;-63
2022/09/17 00:47:26;;;;;;;18.10;7.00;;;;;;;12.35;66.23;97935.45;106191;1274;96449;-65
2022/09/17 00:50:03;;;;;;;15.30;6.90;;;;;;;12.32;66.20;97939.46;106128;1274;95340;-64
2022/09/17 00:52:42;;;;;;;15.20;6.70;;;;;;;12.31;66.39;97942.04;106096;1274;110232;-65
2022/09/17 00:55:25;;;;;;;17.40;7.20;;;;;;;12.31;66.38;97942.64;106172;1274;97969;-64
2022/09/17 00:57:57;;;;;;;20.80;8.20;;;;;;;12.31;66.35;97940.34;106118;1276;108304;-63
2022/09/17 01:00:27;;;;;;;16.70;6.70;;;;;;;12.29;66.39;97933.60;106129;1274;96304;-62
2022/09/17 01:02:54;;;;;;;16.40;7.00;;;;;;;12.26;66.46;97929.55;106171;1274;95268;-64
2022/09/17 01:05:45;;;;;;;17.70;6.60;;;;;;;12.27;66.42;97929.70;106185;1274;111846;-64
2022/09/17 01:08:25;;;;;;;15.40;6.40;;;;;;;12.27;66.46;97930.63;106178;1274;95270;-64
2022/09/17 01:11:06;;;;;;;16.20;6.60;;;;;;;12.24;66.39;97934.92;106096;1274;108440;-64
2022/09/17 01:13:51;;;;;;;12.90;5.90;;;;;;;12.24;66.40;97935.32;106157;1274;97915;-64
2022/09/17 01:16:25;;;;;;;15.60;6.00;;;;;;;12.21;66.58;97932.73;106104;1274;95695;-64
2022/09/17 01:19:34;;;;;;;13.70;6.10;;;;;;;12.19;66.52;97931.29;106100;1274;111732;-64
2022/09/17 01:22:13;;;;;;;17.40;6.50;;;;;;;12.17;66.43;97935.49;105996;1274;97969;-64
2022/09/17 01:24:59;;;;;;;17.40;6.60;;;;;;;12.14;66.50;97930.20;105986;1274;108238;-64
2022/09/17 01:27:56;;;;;;;14.50;6.40;;;;;;;12.14;66.49;97928.69;105984;1274;95353;-64
2022/09/17 01:30:58;;;;;;;15.30;6.60;;;;;;;12.11;66.47;97936.92;106026;1274;97863;-63
2022/09/17 01:33:32;;;;;;;14.30;6.70;;;;;;;12.08;66.59;97936.50;106025;1274;112043;-63
2022/09/17 01:36:35;;;;;;;15.10;6.50;;;;;;;12.07;66.71;97938.69;106188;1274;95271;-63
2022/09/17 01:39:14;;;;;;;14.00;6.00;;;;;;;12.07;66.60;97929.30;106104;1274;108384;-64
2022/09/17 01:41:56;;;;;;;14.30;6.60;;;;;;;12.06;66.65;97932.42;106103;1274;97893;-63
2022/09/17 01:44:37;;;;;;;17.40;6.10;;;;;;;12.05;66.62;97928.42;105982;1274;97987;-63
2022/09/17 01:47:19;;;;;;;18.70;6.10;;;;;;;12.01;66.66;97926.45;106026;1274;111983;-63
2022/09/17 01:49:54;;;;;;;12.70;5.50;;;;;;;11.99;66.65;97928.67;106137;1274;96302;-64
2022/09/17 01:52:25;;;;;;;16.10;6.30;;;;;;;11.96;66.68;97933.50;106128;1274;108147;-63
2022/09/17 01:54:59;;;;;;;13.80;5.90;;;;;;;11.94;66.74;97939.58;106105;1274;97918;-62
2022/09/17 01:57:44;;;;;;;13.10;5.80;;;;;;;11.93;66.68;97934.73;106108;1274;97915;-64
2022/09/17 02:00:16;;;;;;;15.50;6.10;;;;;;;11.90;66.67;97927.64;106017;1274;112036;-63
2022/09/17 02:03:04;;;;;;;16.40;6.20;;;;;;;11.90;66.71;97932.89;106040;1274;97965;-62
2022/09/17 02:05:49;;;;;;;13.80;6.70;;;;;;;11.88;66.78;97937.85;105962;1274;108598;-62
2022/09/17 02:08:25;;;;;;;14.50;6.40;;;;;;;11.85;66.82;97941.65;106006;1274;97983;-61
2022/09/17 02:11:03;;;;;;;17.60;6.40;;;;;;;11.84;66.87;97939.14;106066;1274;97982;-63
2022/09/17 02:13:43;;;;;;;15.70;5.50;;;;;;;11.83;66.93;97946.82;105941;1274;111973;-63
2022/09/17 02:16:34;;;;;;;13.80;5.90;;;;;;;11.82;66.82;97943.98;105962;1274;97915;-63
2022/09/17 02:19:24;;;;;;;15.40;6.80;;;;;;;11.79;66.89;97941.05;105955;1274;108420;-63
2022/09/17 02:22:02;;;;;;;12.20;5.80;;;;;;;11.78;66.90;97945.94;105958;1274;97965;-64
2022/09/17 02:24:41;;;;;;;15.00;6.20;;;;;;;11.74;66.98;97942.71;106045;1274;97964;-63
2022/09/17 02:27:31;;;;;;;16.90;6.40;;;;;;;11.73;66.94;97930.17;105977;1274;111692;-61
2022/09/17 02:30:00;;;;;;;16.70;6.40;;;;;;;11.73;67.13;97924.15;105997;1274;95426;-64
2022/09/17 02:32:28;;;;;;;14.10;6.30;;;;;;;11.73;66.97;97922.59;105990;1274;108465;-64
2022/09/17 02:34:56;;;;;;;14.60;6.00;;;;;;;11.71;66.95;97921.50;106151;1274;98493;-64
2022/09/17 02:37:24;;;;;;;15.70;6.80;;;;;;;11.69;66.99;97917.11;106010;1274;96583;-64
2022/09/17 02:39:53;;;;;;;13.10;5.90;;;;;;;11.67;67.14;97920.51;106080;1276;112133;-63
2022/09/17 02:42:32;;;;;;;15.30;6.50;;;;;;;11.66;67.06;97919.30;106143;1274;96402;-64
2022/09/17 02:45:21;;;;;;;14.60;6.00;;;;;;;11.65;67.05;97920.83;106118;1274;107726;-65
2022/09/17 02:48:18;;;;;;;19.10;6.10;;;;;;;11.63;67.11;97918.36;106057;1274;97909;-65
2022/09/17 02:51:08;;;;;;;14.40;6.60;;;;;;;11.59;67.27;97918.69;106080;1274;97832;-64
2022/09/17 02:54:04;;;;;;;16.10;6.20;;;;;;;11.57;67.21;97922.48;106036;1274;112018;-67
2022/09/17 02:57:25;;;;;;;14.00;6.30;;;;;;;11.53;67.28;97918.95;106064;1274;97991;-67
2022/09/17 03:00:19;;;;;;;14.30;6.40;;;;;;;11.50;67.28;97915.66;105783;1274;108636;-60
2022/09/17 03:02:49;;;;;;;;;;;;;;;11.46;67.22;97917.08;106039;1274;97850;-66
2022/09/17 03:05:20;;;;;;;15.20;6.80;;;;;;;11.41;67.31;97919.38;106077;1274;96582;-65
2022/09/17 03:07:49;;;;;;;15.30;6.60;;;;;;;11.38;67.13;97919.67;106159;1274;111495;-65
2022/09/17 03:10:18;;;;;;;15.40;6.80;;;;;;;11.36;67.18;97926.08;106108;1274;97867;-63
2022/09/17 03:12:46;;;;;;;14.60;7.60;;;;;;;11.33;67.29;97926.55;106201;1274;108422;-63
2022/09/17 03:15:14;;;;;;;17.40;6.80;;;;;;;11.29;67.31;97924.17;106188;1274;97859;-64
2022/09/17 03:17:42;;;;;;;13.60;6.40;;;;;;;11.27;67.30;97922.42;106086;1274;97898;-63
2022/09/17 03:20:10;;;;;;;17.30;7.00;;;;;;;11.25;67.32;97922.30;106093;1274;112003;-65
2022/09/17 03:22:38;;;;;;;15.10;6.30;;;;;;;11.23;67.38;97920.38;106030;1274;98005;-65
2022/09/17 03:25:07;;;;;;;18.30;6.90;;;;;;;11.23;67.44;97915.75;106127;1274;108389;-66
2022/09/17 03:27:35;;;;;;;14.20;7.20;;;;;;;11.22;67.46;97910.66;106226;1274;97876;-65
2022/09/17 03:30:05;;;;;;;18.80;7.30;;;;;;;11.21;67.45;97921.63;106221;1274;97956;-65
2022/09/17 03:32:33;;;;;;;18.50;7.90;;;;;;;11.20;67.43;97924.73;106165;1274;111423;-64
2022/09/17 03:35:02;;;;;;;14.60;7.30;;;;;;;11.17;67.39;97928.14;106128;1274;97100;-64
2022/09/17 03:37:30;;;;;;;18.30;6.90;;;;;;;11.14;67.42;97924.02;106084;1274;108361;-62
2022/09/17 03:40:00;;;;;;;16.20;7.20;;;;;;;11.12;67.44;97929.32;106077;1274;97946;-64
2022/09/17 03:42:28;;;;;;;14.30;6.90;;;;;;;11.11;67.47;97923.61;106090;1274;97944;-64
2022/09/17 03:44:56;;;;;;;15.80;7.20;;;;;;;11.09;67.40;97928.42;106123;1274;112043;-63
2022/09/17 03:47:24;;;;;;;16.00;7.40;;;;;;;11.05;67.38;97925.74;106144;1274;97918;-64
2022/09/17 03:49:53;;;;;;;16.10;7.10;;;;;;;11.00;67.42;97928.80;106078;1274;107846;-63
2022/09/17 03:52:21;;;;;;;16.90;8.00;;;;;;;10.97;67.38;97932.65;104945;1274;1543335;-63
2022/09/17 03:54:49;;;;;;;18.40;7.40;;;;;;;10.95;67.52;97933.19;106087;1274;98136;-64
2022/09/17 03:57:17;;;;;;;19.80;8.10;;;;;;;10.95;67.53;97926.89;106010;1274;111041;-62
2022/09/17 03:59:44;;;;;;;15.80;7.00;;;;;;;10.95;67.66;97925.96;106001;1274;95188;-63
2022/09/17 04:02:13;;;;;;;17.10;7.10;;;;;;;10.96;67.61;97928.50;106063;1274;108371;-63
2022/09/17 04:04:41;;;;;;;16.20;7.30;;;;;;;10.96;67.58;97926.19;106072;1274;97860;-64
2022/09/17 04:07:09;;;;;;;17.80;7.90;;;;;;;10.96;67.68;97924.85;106005;1274;97875;-63
2022/09/17 04:09:37;;;;;;;17.90;6.80;;;;;;;10.96;67.67;97922.29;105950;1275;112071;-64
2022/09/17 04:12:05;;;;;;;16.00;7.20;;;;;;;10.96;67.67;97924.08;106208;1274;97873;-63
2022/09/17 04:14:33;;;;;;;14.20;7.00;;;;;;;10.96;67.67;97921.62;106142;1274;108380;-64
2022/09/17 04:17:02;;;;;;;14.10;6.60;;;;;;;10.97;67.81;97917.64;106078;1274;97976;-65
2022/09/17 04:19:30;;;;;;;14.50;6.70;;;;;;;10.98;67.78;97920.00;106106;1274;95356;-65
2022/09/17 04:21:59;;;;;;;15.30;6.80;;;;;;;10.99;67.85;97917.45;106137;1274;112018;-64
2022/09/17 04:24:27;;;;;;;15.70;6.80;;;;;;;11.00;67.78;97911.25;106036;1274;96679;-65
2022/09/17 04:26:54;;;;;;;17.90;7.10;;;;;;;11.01;67.85;97908.15;106050;1274;108340;-65
2022/09/17 04:29:22;;;;;;;15.60;7.10;;;;;;;11.00;67.80;97904.02;106048;1274;97970;-64
2022/09/17 04:31:50;;;;;;;16.90;7.40;;;;;;;10.99;67.86;97904.15;106122;1274;97883;-65
2022/09/17 04:34:18;;;;;;;15.10;6.70;;;;;;;10.99;67.80;97910.52;106098;1274;112089;-61
2022/09/17 04:36:46;;;;;;;17.80;7.20;;;;;;;10.98;67.82;97907.40;106149;1274;97923;-64
2022/09/17 04:39:14;;;;;;;16.40;7.00;;;;;;;10.98;67.80;97910.28;106087;1274;108333;-64
2022/09/17 04:41:42;;;;;;;16.30;6.80;;;;;;;10.97;67.93;97904.31;106152;1274;98001;-62
2022/09/17 04:44:09;;;;;;;16.40;6.80;;;;;;;10.95;67.86;97903.02;106133;1274;97974;-65
2022/09/17 04:46:37;;;;;;;16.90;6.50;;;;;;;10.96;67.82;97905.66;106083;1274;110961;-65
2022/09/17 04:49:07;;;;;;;14.70;6.80;;;;;;;10.96;67.91;97900.90;106112;1274;97603;-63
2022/09/17 04:51:35;;;;;;;15.40;6.40;;;;;;;10.95;67.84;97897.54;106097;1274;108777;-65
2022/09/17 04:54:03;;;;;;;14.10;6.20;;;;;;;10.94;68.02;97893.36;106056;1274;97957;-64
2022/09/17 04:56:31;;;;;;;15.50;6.00;;;;;;;10.95;67.97;97897.25;106133;1275;97886;-63
2022/09/17 04:58:59;;;;;;;15.90;6.40;;;;;;;10.94;68.03;97896.36;106131;1274;111993;-63
2022/09/17 05:01:27;;;;;;;15.40;6.60;;;;;;;10.96;68.02;97899.48;106036;1274;97856;-64
2022/09/17 05:03:55;;;;;;;12.70;6.20;;;;;;;10.96;67.95;97900.64;105988;1274;108359;-64
2022/09/17 05:06:23;;;;;;;12.70;6.00;;;;;;;10.98;67.97;97899.97;105959;1274;95405;-61
2022/09/17 05:08:51;;;;;;;17.60;7.30;;;;;;;10.98;68.04;97906.33;105981;1275;97867;-63
2022/09/17 05:11:19;;;;;;;15.40;6.50;;;;;;;10.98;67.94;97905.40;105993;1274;111127;-65
2022/09/17 05:13:47;;;;;;;14.60;6.20;;;;;;;11.00;68.06;97908.08;105960;1274;97986;-64
2022/09/17 05:16:15;;;;;;;16.20;6.50;;;;;;;11.02;68.03;97908.60;106159;1274;108496;-64
2022/09/17 05:18:44;;;;;;;14.90;6.30;;;;;;;11.05;68.05;97910.34;106189;1274;95238;-62
2022/09/17 05:21:12;;;;;;;14.20;6.00;;;;;;;11.06;68.17;97913.18;106114;1274;97949;-63
2022/09/17 05:23:39;;;;;;;15.40;6.30;;;;;;;11.10;68.10;97916.41;106104;1274;112338;-65
2022/09/17 05:26:08;;;;;;;13.00;6.10;;;;;;;11.13;68.13;97918.98;106066;1274;95184;-64
2022/09/17 05:28:36;;;;;;;13.00;5.60;;;;;;;11.15;68.10;97924.14;105975;1274;108360;-66
2022/09/17 05:31:04;;;;;;;13.00;6.10;;;;;;;11.16;68.18;97924.33;105971;1274;97958;-65
2022/09/17 05:33:32;;;;;;;13.20;5.80;;;;;;;11.20;68.24;97918.36;106114;1274;97924;-65
2022/09/17 05:36:01;;;;;;;11.70;5.30;;;;;;;11.23;68.27;97921.81;106064;1274;111944;-65
2022/09/17 05:38:29;;;;;;;12.10;5.40;;;;;;;11.25;68.33;97912.32;106085;1274;97894;-65
2022/09/17 05:40:57;;;;;;;13.20;5.70;;;;;;;11.29;68.23;97907.73;106082;1274;108346;-65
2022/09/17 05:43:25;;;;;;;13.50;5.90;;;;;;;11.32;68.25;97899.62;106064;1274;97922;-64
2022/09/17 05:45:53;;;;;;;10.20;5.20;;;;;;;11.35;68.27;97902.89;106107;1274;97962;-64
2022/09/17 05:48:21;;;;;;;11.90;5.40;;;;;;;11.39;68.29;97901.85;106178;1274;112063;-64
2022/09/17 05:50:49;;;;;;;13.00;5.50;;;;;;;11.43;68.40;97900.36;106169;1274;97886;-64
2022/09/17 05:53:18;;;;;;;12.40;5.70;;;;;;;11.46;68.40;97906.10;105967;1274;108530;-65
2022/09/17 05:55:47;;;;;;;15.30;6.10;;;;;;;11.51;68.27;97909.42;106018;1274;96247;-64
2022/09/17 05:58:17;;;;;;;11.90;5.40;;;;;;;11.54;68.31;97907.00;106058;1274;97836;-65
2022/09/17 06:00:47;;;;;;;14.40;5.90;;;;;;;11.58;68.37;97908.89;106016;1274;112142;-66
2022/09/17 06:03:18;;;;;;;14.70;6.50;;;;;;;11.61;68.44;97913.77;106014;1274;96721;-65
2022/09/17 06:05:57;;;;;;;15.60;6.30;;;;;;;11.63;68.33;97912.84;105974;1274;107858;-64
2022/09/17 06:08:28;;;;;;;14.00;5.90;;;;;;;11.66;68.47;97914.05;105931;1274;96546;-65
2022/09/17 06:10:56;;;;;;;11.10;5.40;;;;;;;11.73;68.56;97916.39;106039;1274;97918;-64
2022/09/17 06:13:29;;;;;;;11.90;5.80;;;;;;;11.80;68.48;97917.27;106044;1274;111942;-64
2022/09/17 06:15:58;;;;;;;11.90;5.50;;;;;;;11.89;68.37;97921.98;105969;1274;97091;-65
2022/09/17 06:18:29;;;;;;;14.00;5.30;;;;;;;11.97;68.46;97919.09;106032;1274;106898;-63
2022/09/17 06:21:00;;;;;;;13.50;6.00;;;;;;;12.06;68.32;97915.32;106005;1274;96293;-64
2022/09/17 06:23:36;;;;;;;13.90;6.00;;;;;;;12.17;68.61;97917.64;106077;1274;97873;-64
2022/09/17 06:26:04;;;;;;;14.10;6.10;;;;;;;12.28;68.57;97916.08;106070;1274;111200;-64
2022/09/17 06:28:34;;;;;;;14.80;6.00;;;;;;;12.38;68.62;97919.58;105968;1274;96408;-65
2022/09/17 06:31:10;;;;;;;16.00;5.90;;;;;;;12.47;68.71;97922.56;105982;1274;108274;-64
2022/09/17 06:33:39;;;;;;;16.30;6.30;;;;;;;12.56;68.74;97929.33;107946;1273;95719;-65
2022/09/17 06:36:10;;;;;;;12.90;6.10;;;;;;;12.63;68.52;97924.52;107928;1273;95822;-64
2022/09/17 06:38:41;;;;;;;16.10;6.10;;;;;;;12.73;68.65;97919.52;107958;1274;111555;-64
2022/09/17 06:41:11;;;;;;;15.30;6.10;;;;;;;12.84;68.52;97916.29;107888;1274;95959;-62
2022/09/17 06:43:39;;;;;;;15.30;5.50;;;;;;;12.96;68.56;97917.02;106257;1274;107658;-64
2022/09/17 06:46:09;;;;;;;11.60;5.30;;;;;;;13.04;68.47;97916.70;106083;1274;95284;-64
2022/09/17 06:48:37;;;;;;;11.70;5.20;;;;;;;13.14;68.53;97921.98;106262;1274;97878;-63
2022/09/17 06:51:09;;;;;;;14.00;5.60;;;;;;;13.22;68.44;97916.13;106151;1274;112026;-65
2022/09/17 06:53:38;;;;;;;14.20;5.70;;;;;;;13.31;68.54;97916.14;106088;1274;95380;-63
2022/09/17 06:56:08;;;;;;;14.40;5.60;;;;;;;13.38;68.51;97915.03;106058;1274;108318;-65
2022/09/17 06:58:37;;;;;;;12.20;5.60;;;;;;;13.46;68.64;97916.46;106052;1275;98002;-65
2022/09/17 07:01:05;;;;;;;13.60;5.00;;;;;;;13.53;68.53;97919.51;106023;1275;97860;-66
2022/09/17 07:03:34;;;;;;;14.40;5.30;;;;;;;13.58;68.54;97920.54;106090;1274;111198;-68
2022/09/17 07:06:03;;;;;;;17.60;5.40;;;;;;;13.64;68.52;97916.63;106029;1274;97832;-66
2022/09/17 07:08:33;;;;;;;13.40;5.60;;;;;;;13.71;68.57;97918.19;105971;1275;107139;-66
2022/09/17 07:11:01;;;;;;;12.10;5.10;;;;;;;13.77;68.47;97930.36;105973;1274;97979;-65
2022/09/17 07:13:29;;;;;;;13.10;5.50;;;;;;;13.84;68.46;97928.02;106050;1274;97784;-59
2022/09/17 07:16:00;;;;;;;13.20;5.50;;;;;;;13.93;68.51;97924.25;106008;1275;111950;-67
2022/09/17 07:18:29;;;;;;;11.30;5.80;;;;;;;14.03;68.43;97921.92;105963;1274;95392;-65
2022/09/17 07:21:03;;;;;;;12.30;5.30;;;;;;;14.15;68.44;97919.99;105989;1274;108781;-64
2022/09/17 07:23:33;;;;;;;14.10;5.60;;;;;;;14.29;68.34;97918.73;106154;1275;97964;-64
2022/09/17 07:26:11;;;;;;;12.80;5.40;;;;;;;14.43;68.36;97920.39;106010;1275;97848;-68
2022/09/17 07:28:40;;;;;;;9.10;4.70;;;;;;;14.53;68.39;97918.43;105984;1275;111460;-66
2022/09/17 07:31:10;;;;;;;9.70;5.00;;;;;;;14.59;68.35;97916.96;106117;1274;95302;-68
2022/09/17 07:33:44;;;;;;;12.60;5.40;;;;;;;14.64;68.27;97915.88;105956;1275;107266;-69
2022/09/17 07:36:16;;;;;;;11.00;4.80;;;;;;;14.70;68.32;97907.80;105984;1277;95250;-71
2022/09/17 07:38:46;;;;;;;9.70;5.20;;;;;;;14.76;68.13;97911.83;105962;1275;97885;-68
2022/09/17 07:41:16;;;;;;;11.50;4.90;;;;;;;14.79;68.15;97916.95;106020;1275;112205;-69
2022/09/17 07:43:44;;;;;;;14.00;5.10;;;;;;;14.90;68.08;97916.67;106051;1275;95502;-68
2022/09/17 07:46:18;;;;;;;9.80;4.50;;;;;;;15.03;68.06;97920.83;106032;1274;108430;-68
2022/09/17 07:48:48;;;;;;;15.20;5.10;;;;;;;15.15;68.10;97923.45;106023;1274;95806;-69
2022/09/17 07:51:21;;;;;;;10.50;4.80;;;;;;;15.28;68.03;97926.48;106032;1274;97998;-68
2022/09/17 07:53:51;;;;;;;11.40;4.40;;;;;;;15.48;67.70;97928.59;106058;1274;111195;-66
2022/09/17 07:56:20;;;;;;;9.30;4.60;;;;;;;15.73;67.71;97925.25;105971;1274;96183;-69
2022/09/17 07:58:49;;;;;;;8.10;4.30;;;;;;;16.12;67.35;97921.07;106054;1274;107925;-68
2022/09/17 08:01:20;;;;;;;10.30;4.30;;;;;;;16.46;67.25;97919.20;106201;1274;97874;-71
2022/09/17 08:03:50;;;;;;;10.90;5.00;;;;;;;16.60;67.28;97915.32;106191;1274;97879;-70
2022/09/17 08:06:27;;;;;;;8.60;4.30;;;;;;;16.92;67.16;97912.50;106043;1274;112363;-71
2022/09/17 08:08:57;;;;;;;9.00;4.20;;;;;;;17.16;67.17;97910.59;105994;1274;97967;-70
2022/09/17 08:11:28;;;;;;;9.80;4.10;;;;;;;17.24;67.12;97916.96;106095;1274;107818;-69
2022/09/17 08:14:16;;;;;;;10.00;4.20;;;;;;;17.31;67.29;97917.78;106100;1274;98671;-69
2022/09/17 08:16:46;;;;;;;8.90;4.20;;;;;;;17.35;67.32;97908.48;106037;1274;97839;-69
2022/09/17 08:19:17;;;;;;;7.60;3.60;;;;;;;17.39;67.26;97908.95;106044;1274;111784;-68
2022/09/17 08:21:48;;;;;;;8.10;3.50;;;;;;;17.35;67.24;97918.73;106056;1274;95251;-69
2022/09/17 08:24:16;;;;;;;7.80;3.80;;;;;;;17.29;67.07;97917.50;105967;1274;108109;-69
2022/09/17 08:26:45;;;;;;;9.00;3.90;;;;;;;17.26;67.11;97921.02;106060;1274;95287;-69
2022/09/17 08:29:14;;;;;;;6.70;3.30;;;;;;;17.29;66.80;97924.27;106026;1274;97860;-69
2022/09/17 08:31:43;;;;;;;7.50;3.40;;;;;;;17.28;66.82;97921.36;106087;1274;111974;-69
2022/09/17 08:34:13;;;;;;;7.80;3.30;;;;;;;17.41;66.46;97925.02;106069;1274;97954;-69
2022/09/17 08:36:42;;;;;;;8.90;3.50;;;;;;;17.66;66.20;97928.55;105991;1274;108420;-68
2022/09/17 08:39:11;;;;;;;5.80;3.10;;;;;;;17.81;66.00;97931.75;105940;1274;97989;-68
2022/09/17 08:41:59;;;;;;;6.20;2.80;;;;;;;17.89;66.04;97933.98;105881;1274;96502;-72
2022/09/17 08:44:39;;;;;;;9.10;3.10;;;;;;;18.00;65.87;97931.62;105886;1274;109499;-68
2022/09/17 08:47:17;;;;;;;8.30;2.90;;;;;;;18.06;65.89;97918.70;106764;1274;95618;-66
2022/09/17 08:49:56;;;;;;;5.40;2.90;;;;;;;18.13;65.84;97905.09;105934;1274;109185;-67
2022/09/17 08:52:58;;;;;;;9.80;3.50;;;;;;;18.25;65.77;97892.64;107929;1273;95704;-70
2022/09/17 08:55:27;;;;;;;4.20;2.90;;;;;;;18.32;65.54;97887.74;106941;1274;95986;-70
2022/09/17 08:58:21;;;;;;;5.60;2.70;;;;;;;18.32;65.58;97881.83;106028;1274;111457;-69
2022/09/17 09:01:02;;;;;;;6.20;3.30;;;;;;;18.33;65.37;97879.72;106041;1274;97885;-68
2022/09/17 09:04:03;;;;;;;8.80;3.40;;;;;;;18.26;65.26;97882.21;105987;1274;108373;-66
2022/09/17 09:06:39;;;;;;;4.10;2.60;;;;;;;18.34;65.19;97886.44;106070;1274;97934;-66
2022/09/17 09:09:15;;;;;;;8.30;3.00;;;;;;;18.49;64.81;97890.63;106085;1274;96958;-66
2022/09/17 09:11:48;;;;;;;6.40;3.00;;;;;;;18.62;64.73;97898.52;106149;1273;111486;-66
2022/09/17 09:14:23;;;;;;;5.60;2.60;;;;;;;18.71;64.64;97907.86;106188;1274;95823;-65
2022/09/17 09:16:56;;;;;;;7.00;2.90;;;;;;;18.77;64.38;97910.84;106220;1274;106761;-65
2022/09/17 09:19:29;;;;;;;5.10;2.90;;;;;;;18.91;64.37;97904.64;106199;1274;97869;-66
2022/09/17 09:22:23;;;;;;;6.60;3.20;;;;;;;18.96;64.09;97895.06;106180;1274;99184;-66
2022/09/17 09:24:51;;;;;;;;;;;;;;;18.98;64.17;97889.59;106152;1274;112020;-65
2022/09/17 09:27:32;;;;;;;7.70;3.10;;;;;;;18.99;63.88;97901.16;106234;1274;97957;-65
2022/09/17 09:30:10;;;;;;;5.40;2.60;;;;;;;18.94;63.95;97900.11;106133;1274;106612;-65
2022/09/17 09:33:05;;;;;;;8.90;3.30;;;;;;;18.89;63.77;97894.99;106096;1274;98472;-66
2022/09/17 09:35:40;;;;;;;6.80;2.80;;;;;;;18.81;63.64;97888.34;106112;1274;95206;-66
2022/09/17 09:38:07;;;;;;;5.30;2.40;;;;;;;18.76;63.62;97882.23;106053;1274;110366;-67
2022/09/17 09:40:55;;;;;;;6.00;3.00;;;;;;;18.75;63.56;97880.08;106033;1274;95316;-65
2022/09/17 09:43:43;;;;;;;4.00;2.60;;;;;;;18.71;63.41;97884.08;106042;1274;108485;-66
2022/09/17 09:46:50;;;;;;;5.50;2.60;;;;;;;18.69;63.36;97889.73;106063;1274;97886;-69
2022/09/17 09:49:52;;;;;;;4.70;2.40;;;;;;;18.67;63.12;97886.93;105942;1274;97881;-69
2022/09/17 09:52:31;;;;;;;4.30;2.40;;;;;;;18.52;62.84;97873.70;106069;1274;110146;-70
2022/09/17 09:55:16;;;;;;;8.70;2.70;;;;;;;18.34;62.71;97861.64;106020;1275;97963;-70
2022/09/17 09:57:57;;;;;;;6.30;2.30;;;;;;;18.23;62.67;97856.64;106146;1274;108793;-73
2022/09/17 10:00:36;;;;;;;6.10;2.70;;;;;;;18.23;62.55;97867.10;106055;1274;96328;-72
2022/09/17 10:03:22;;;;;;;4.80;2.70;;;;;;;18.24;62.42;97865.84;106028;1274;97980;-70
2022/09/17 10:06:00;;;;;;;10.30;4.00;;;;;;;18.33;62.47;97865.36;106127;1274;111336;-69
2022/09/17 10:08:36;;;;;;;10.10;3.40;;;;;;;18.46;62.43;97867.48;106161;1274;97982;-65
2022/09/17 10:11:11;;;;;;;7.70;3.50;;;;;;;18.48;62.21;97868.70;105998;1275;107735;-65
2022/09/17 10:13:42;;;;;;;5.40;2.90;;;;;;;18.39;61.98;97880.06;105995;1275;97857;-64
2022/09/17 10:16:31;;;;;;;5.70;3.10;;;;;;;18.32;61.89;97890.41;106072;1274;97838;-66
2022/09/17 10:19:04;;;;;;;5.30;3.10;;;;;;;18.24;61.77;97890.31;106034;1274;111119;-65
2022/09/17 10:21:41;;;;;;;4.60;2.60;;;;;;;18.22;61.72;97881.97;106067;1274;95202;-65
2022/09/17 10:24:30;;;;;;;5.60;2.70;;;;;;;18.26;61.70;97875.81;106035;1274;107344;-64
2022/09/17 10:27:06;;;;;;;6.20;2.70;;;;;;;18.27;61.32;97869.84;106920;1274;97870;-64
2022/09/17 10:29:35;;;;;;;5.30;2.90;;;;;;;18.22;61.11;97866.70;106143;1274;95411;-64
2022/09/17 10:32:07;;;;;;;7.00;2.80;;;;;;;18.20;61.20;97866.28;106096;1274;112032;-64
2022/09/17 10:34:40;;;;;;;6.20;2.90;;;;;;;18.20;61.11;97865.10;106114;1274;97932;-65
2022/09/17 10:37:37;;;;;;;3.20;2.40;;;;;;;18.22;60.98;97868.84;106163;1274;107765;-66
2022/09/17 10:40:27;;;;;;;4.20;2.50;;;;;;;18.24;60.90;97867.32;106189;1274;97874;-64
2022/09/17 10:43:10;;;;;;;6.10;2.40;;;;;;;18.24;60.59;97872.92;106160;1274;97856;-68
2022/09/17 10:46:00;;;;;;;7.20;2.60;;;;;;;18.28;60.64;97880.05;106067;1274;112016;-62
2022/09/17 10:49:07;;;;;;;3.90;2.00;;;;;;;18.29;60.36;97879.48;106130;1274;98579;-66
2022/09/17 10:51:40;;;;;;;3.60;1.90;;;;;;;18.28;60.23;97879.51;105997;1274;108539;-67
2022/09/17 10:54:11;;;;;;;5.00;2.10;;;;;;;18.18;60.05;97884.23;106030;1275;96316;-66
2022/09/17 10:56:50;;;;;;;4.90;2.40;;;;;;;18.10;60.16;97880.48;106039;1275;97767;-67
2022/09/17 10:59:44;;;;;;;7.30;2.30;;;;;;;18.13;60.27;97883.31;106011;1274;112198;-67
2022/09/17 11:02:49;;;;;;;4.30;2.30;;;;;;;18.05;59.91;97892.75;106239;1274;97967;-66
2022/09/17 11:05:26;;;;;;;8.40;2.70;;;;;;;17.94;59.69;97897.80;106149;1274;108068;-65
2022/09/17 11:08:39;;;;;;;5.20;2.20;;;;;;;17.82;59.51;97905.58;106182;1274;95629;-64
2022/09/17 11:11:37;;;;;;;6.90;2.50;;;;;;;17.67;59.38;97896.08;106163;1274;97804;-67
2022/09/17 11:14:40;;;;;;;5.40;2.10;;;;;;;17.60;59.36;97890.89;106038;1277;111989;-66
2022/09/17 11:17:11;;;;;;;3.80;2.00;;;;;;;17.58;59.53;97887.51;106058;1274;97962;-66
2022/09/17 11:19:54;;;;;;;2.50;2.00;;;;;;;17.59;58.97;97887.94;106220;1274;109723;-65
2022/09/17 11:23:06;;;;;;;5.70;2.20;;;;;;;17.58;59.00;97886.44;106182;1274;97953;-65
2022/09/17 11:26:02;;;;;;;4.40;2.30;;;;;;;17.56;58.84;97883.90;106221;1274;98611;-65
2022/09/17 11:28:40;;;;;;;6.50;2.40;;;;;;;17.57;58.65;97882.55;106113;1274;111310;-65
2022/09/17 11:31:42;;;;;;;6.00;2.00;;;;;;;17.58;58.65;97883.05;106140;1274;97957;-66
2022/09/17 11:34:59;;;;;;;5.70;2.60;;;;;;;17.55;58.64;97881.15;106187;1274;107749;-66
2022/09/17 11:37:38;;;;;;;8.60;2.70;;;;;;;17.49;58.70;97890.03;105936;1275;98037;-67
2022/09/17 11:40:10;;;;;;;5.40;2.40;;;;;;;17.40;58.55;97890.91;106136;1274;98271;-68
2022/09/17 11:42:54;;;;;;;5.50;2.70;;;;;;;17.28;58.44;97890.53;106203;1274;111203;-64
2022/09/17 11:45:29;;;;;;;5.80;2.60;;;;;;;17.20;58.45;97885.33;106145;1274;97946;-65
2022/09/17 11:48:09;;;;;;;4.30;2.20;;;;;;;17.12;58.25;97886.19;106199;1274;107907;-65
2022/09/17 11:51:01;;;;;;;8.40;2.90;;;;;;;17.03;58.13;97888.11;106136;1274;97970;-67
2022/09/17 11:53:37;;;;;;;4.50;2.60;;;;;;;16.95;57.88;97894.94;106115;1275;95386;-67
2022/09/17 11:56:28;;;;;;;7.30;2.60;;;;;;;16.90;58.00;97894.62;106118;1274;111077;-68